Time;durP1;ratioP1;P1;durP2;ratioP2;P2;SDS_P1;SDS_P2;PMS_P1;PMS_P2;Temp;Humidity;BMP_temperature;BMP_pressure;BME280_temperature;BME280_humidity;BME280_pressure;Samples;Min_cycle;Max_cycle;Signal;HPM_P1;HPM_P2
2021/12/03 00:00:45;;;;;;;11.65;6.03;;;0.40;99.90;;;;;;2114017;28;20032;-69
2021/12/03 00:01:46;;;;;;;9.70;5.60;;;0.40;99.90;;;;;;2112522;28;20027;-69
2021/12/03 00:02:47;;;;;;;10.65;5.70;;;0.40;99.90;;;;;;2113332;28;20395;-69
2021/12/03 00:03:48;;;;;;;9.07;5.55;;;0.40;99.90;;;;;;2114023;28;20098;-70
2021/12/03 00:04:49;;;;;;;13.63;5.88;;;0.40;99.90;;;;;;2114011;28;20051;-70
2021/12/03 00:05:51;;;;;;;11.98;5.93;;;0.40;99.90;;;;;;2113277;28;20412;-70
2021/12/03 00:06:52;;;;;;;10.60;5.50;;;0.30;99.90;;;;;;2113303;28;20209;-70
2021/12/03 00:07:53;;;;;;;11.30;6.20;;;0.30;99.90;;;;;;2112525;28;20868;-69
2021/12/03 00:08:54;;;;;;;12.10;6.30;;;0.30;99.90;;;;;;2114084;28;20019;-70
2021/12/03 00:09:55;;;;;;;12.38;6.57;;;0.30;99.90;;;;;;2113979;28;20027;-69
2021/12/03 00:11:01;;;;;;;16.23;7.25;;;0.30;99.90;;;;;;2114050;28;20016;-70
2021/12/03 00:12:04;;;;;;;14.52;7.35;;;0.40;99.90;;;;;;2113054;28;20054;-71
2021/12/03 00:13:07;;;;;;;16.95;7.43;;;0.40;99.90;;;;;;2113866;28;20058;-70
2021/12/03 00:14:07;;;;;;;12.80;6.63;;;0.40;99.90;;;;;;2114033;28;20550;-69
2021/12/03 00:15:10;;;;;;;18.13;7.18;;;0.40;99.90;;;;;;2114038;28;20024;-70
2021/12/03 00:16:12;;;;;;;13.65;7.18;;;0.40;99.90;;;;;;2114154;28;20552;-70
2021/12/03 00:17:12;;;;;;;14.05;7.30;;;0.40;99.90;;;;;;2113534;28;20028;-70
2021/12/03 00:18:13;;;;;;;11.15;6.85;;;0.40;99.90;;;;;;2113566;28;20092;-69
2021/12/03 00:19:13;;;;;;;12.13;6.20;;;0.40;99.90;;;;;;2119748;27;20049;-68
2021/12/03 00:20:14;;;;;;;12.23;6.53;;;0.30;99.90;;;;;;2121983;27;20034;-70
2021/12/03 00:21:17;;;;;;;10.48;6.38;;;0.30;99.90;;;;;;2121876;27;20400;-70
2021/12/03 00:22:17;;;;;;;12.45;6.38;;;0.30;99.90;;;;;;2122338;27;20074;-71
2021/12/03 00:23:24;;;;;;;12.13;6.45;;;0.30;99.90;;;;;;2122888;27;20027;-72
2021/12/03 00:24:25;;;;;;;13.30;6.38;;;0.30;99.90;;;;;;2117953;27;20042;-72
2021/12/03 00:25:25;;;;;;;17.73;7.28;;;0.20;99.90;;;;;;2117634;27;20042;-69
2021/12/03 00:26:26;;;;;;;16.05;7.97;;;0.20;99.90;;;;;;2120226;27;20055;-71
2021/12/03 00:27:27;;;;;;;14.45;7.43;;;0.20;99.90;;;;;;2122780;27;20035;-71
2021/12/03 00:28:28;;;;;;;12.55;7.57;;;0.20;99.90;;;;;;2123229;27;20028;-70
2021/12/03 00:29:29;;;;;;;12.95;7.35;;;0.20;99.90;;;;;;2123154;27;20484;-69
2021/12/03 00:30:31;;;;;;;14.52;7.68;;;0.30;99.90;;;;;;2122785;27;20054;-70
2021/12/03 00:31:32;;;;;;;16.40;7.65;;;0.30;99.90;;;;;;2121227;27;20458;-72
2021/12/03 00:32:33;;;;;;;14.95;8.00;;;0.30;99.90;;;;;;2122276;27;20105;-69
2021/12/03 00:33:35;;;;;;;14.77;8.40;;;0.40;99.90;;;;;;2122802;27;20424;-68
2021/12/03 00:34:36;;;;;;;15.02;8.43;;;0.40;99.90;;;;;;2113375;28;20030;-68
2021/12/03 00:35:37;;;;;;;15.52;9.15;;;0.50;99.90;;;;;;2121777;27;20026;-70
2021/12/03 00:36:37;;;;;;;17.25;9.10;;;0.60;99.90;;;;;;2122692;27;20030;-70
2021/12/03 00:37:42;;;;;;;17.60;9.32;;;0.60;99.90;;;;;;2121952;27;20027;-70
2021/12/03 00:38:47;;;;;;;16.77;8.93;;;0.60;99.90;;;;;;2113986;27;20027;-70
2021/12/03 00:39:48;;;;;;;15.77;8.63;;;0.60;99.90;;;;;;2114249;27;20575;-72
2021/12/03 00:40:49;;;;;;;15.10;8.48;;;0.60;99.90;;;;;;2123349;27;20019;-70
2021/12/03 00:41:56;;;;;;;15.93;8.45;;;0.70;99.90;;;;;;2120631;27;20058;-69
2021/12/03 00:42:59;;;;;;;16.63;8.18;;;0.70;99.90;;;;;;2114119;28;20095;-70
2021/12/03 00:43:59;;;;;;;16.15;8.70;;;0.60;99.90;;;;;;2114263;28;20019;-70
2021/12/03 00:45:02;;;;;;;15.05;8.57;;;0.60;99.90;;;;;;2114469;28;20072;-70
2021/12/03 00:46:06;;;;;;;14.75;8.88;;;0.60;99.90;;;;;;2114677;28;20034;-70
2021/12/03 00:47:07;;;;;;;19.45;10.02;;;0.60;99.90;;;;;;2115206;28;20054;-70
2021/12/03 00:48:08;;;;;;;17.60;9.73;;;0.60;99.90;;;;;;2114480;28;20020;-69
2021/12/03 00:49:09;;;;;;;16.00;9.13;;;0.60;99.90;;;;;;2113403;28;20023;-69
2021/12/03 00:50:12;;;;;;;22.92;10.32;;;0.50;99.90;;;;;;2113964;28;20024;-72
2021/12/03 00:51:14;;;;;;;16.08;9.73;;;0.60;99.90;;;;;;2114188;28;20023;-73
2021/12/03 00:52:15;;;;;;;17.63;9.75;;;0.60;99.90;;;;;;2112438;28;20613;-72
2021/12/03 00:53:16;;;;;;;16.85;9.55;;;0.60;99.90;;;;;;2113062;28;20080;-72
2021/12/03 00:54:16;;;;;;;16.33;9.18;;;0.50;99.90;;;;;;2121697;27;20027;-72
2021/12/03 00:55:18;;;;;;;16.92;9.80;;;0.50;99.90;;;;;;2113733;28;20027;-72
2021/12/03 00:56:18;;;;;;;16.20;9.23;;;0.60;99.90;;;;;;2113634;28;20450;-72
2021/12/03 00:57:19;;;;;;;16.02;9.27;;;0.60;99.90;;;;;;2118497;28;20111;-71
2021/12/03 00:58:19;;;;;;;15.65;9.15;;;0.60;99.90;;;;;;2117288;27;20039;-72
2021/12/03 00:59:20;;;;;;;15.38;9.00;;;0.70;99.90;;;;;;2116595;28;20057;-72
2021/12/03 01:00:26;;;;;;;13.93;8.75;;;0.70;99.90;;;;;;2119275;28;20166;-72
2021/12/03 01:01:27;;;;;;;25.02;10.45;;;0.80;99.90;;;;;;2116159;28;20055;-72
2021/12/03 01:02:27;;;;;;;16.30;9.55;;;0.80;99.90;;;;;;2118316;28;20065;-72
2021/12/03 01:03:28;;;;;;;13.27;8.68;;;0.80;99.90;;;;;;2116084;28;20023;-72
2021/12/03 01:04:28;;;;;;;14.70;9.50;;;0.80;99.90;;;;;;2118632;27;20034;-72
2021/12/03 01:05:31;;;;;;;16.58;10.05;;;0.80;99.90;;;;;;2116628;28;20024;-72
2021/12/03 01:06:32;;;;;;;13.80;8.90;;;0.80;99.90;;;;;;2118381;27;20074;-72
2021/12/03 01:07:32;;;;;;;14.07;8.82;;;0.80;99.90;;;;;;2117241;28;20035;-72
2021/12/03 01:08:35;;;;;;;14.68;9.20;;;0.80;99.90;;;;;;2118078;27;20031;-71
2021/12/03 01:09:36;;;;;;;17.60;10.38;;;0.80;99.90;;;;;;2117864;28;20503;-72
2021/12/03 01:10:37;;;;;;;14.68;10.20;;;0.70;99.90;;;;;;2118166;27;20055;-70
2021/12/03 01:11:38;;;;;;;20.83;10.30;;;0.70;99.90;;;;;;2119235;28;20102;-72
2021/12/03 01:12:39;;;;;;;18.75;10.07;;;0.60;99.90;;;;;;2116223;28;20539;-71
2021/12/03 01:13:42;;;;;;;20.00;10.70;;;0.60;99.90;;;;;;2110554;28;20016;-73
2021/12/03 01:14:42;;;;;;;19.08;10.43;;;0.50;99.90;;;;;;2119637;28;20028;-71
2021/12/03 01:15:43;;;;;;;17.58;10.27;;;0.50;99.90;;;;;;2119622;28;20035;-72
2021/12/03 01:16:44;;;;;;;22.85;10.48;;;0.50;99.90;;;;;;2116609;28;20032;-73
2021/12/03 01:17:45;;;;;;;18.13;10.82;;;0.40;99.90;;;;;;2116826;28;20015;-72
2021/12/03 01:18:46;;;;;;;20.27;11.43;;;0.40;99.90;;;;;;2108139;28;20028;-71
2021/12/03 01:19:46;;;;;;;21.40;11.30;;;0.40;99.90;;;;;;2109618;28;20039;-71
2021/12/03 01:20:47;;;;;;;22.02;11.48;;;0.30;99.90;;;;;;2115605;28;20133;-72
2021/12/03 01:21:52;;;;;;;18.02;11.18;;;0.30;99.90;;;;;;2120811;27;20032;-72
2021/12/03 01:22:54;;;;;;;21.10;10.80;;;0.30;99.90;;;;;;2115384;28;20542;-71
2021/12/03 01:23:55;;;;;;;23.63;12.32;;;0.30;99.90;;;;;;2113803;28;20020;-71
2021/12/03 01:24:55;;;;;;;21.90;12.02;;;0.30;99.90;;;;;;2123945;27;20042;-70
2021/12/03 01:25:57;;;;;;;22.40;12.18;;;0.20;99.90;;;;;;2124643;27;20475;-72
2021/12/03 01:26:57;;;;;;;22.40;12.27;;;0.20;99.90;;;;;;2115256;28;20385;-71
2021/12/03 01:28:00;;;;;;;20.20;11.85;;;0.20;99.90;;;;;;2115044;28;20103;-69
2021/12/03 01:29:00;;;;;;;18.55;11.65;;;0.20;99.90;;;;;;2123400;27;20097;-71
2021/12/03 01:30:03;;;;;;;20.10;11.45;;;0.10;99.90;;;;;;2123581;27;20050;-71
2021/12/03 01:31:07;;;;;;;19.55;11.88;;;0.10;99.90;;;;;;2123865;27;20027;-69
2021/12/03 01:32:08;;;;;;;23.63;12.15;;;0.00;99.90;;;;;;2114253;28;20024;-71
2021/12/03 01:33:09;;;;;;;18.52;11.60;;;0.00;99.90;;;;;;2123388;27;20377;-70
2021/12/03 01:34:09;;;;;;;19.30;12.02;;;0.00;99.90;;;;;;2124377;27;20110;-70
2021/12/03 01:35:11;;;;;;;21.67;12.15;;;-0.10;99.90;;;;;;2124393;27;20064;-72
2021/12/03 01:36:13;;;;;;;19.55;12.40;;;-0.10;99.90;;;;;;2124413;27;20030;-71
2021/12/03 01:37:13;;;;;;;20.42;11.82;;;-0.20;99.90;;;;;;2124443;27;20050;-73
2021/12/03 01:38:14;;;;;;;17.02;11.38;;;-0.20;99.90;;;;;;2124325;27;20432;-71
2021/12/03 01:39:15;;;;;;;18.20;11.30;;;-0.20;99.90;;;;;;2124320;27;20134;-73
2021/12/03 01:40:21;;;;;;;18.88;11.77;;;-0.20;99.90;;;;;;2123753;27;20495;-71
2021/12/03 01:41:21;;;;;;;19.83;11.68;;;-0.20;99.90;;;;;;2115287;27;20118;-72
2021/12/03 01:42:22;;;;;;;20.25;12.18;;;-0.30;99.90;;;;;;2122864;27;20455;-71
2021/12/03 01:43:25;;;;;;;22.70;12.80;;;-0.30;99.90;;;;;;2123875;27;20402;-71
2021/12/03 01:44:25;;;;;;;19.38;11.43;;;-0.30;99.90;;;;;;2123807;27;20023;-71
2021/12/03 01:45:31;;;;;;;21.15;12.57;;;-0.30;99.90;;;;;;2124414;27;20031;-72
2021/12/03 01:46:32;;;;;;;21.23;12.68;;;-0.30;99.90;;;;;;2124295;27;20030;-69
2021/12/03 01:47:33;;;;;;;20.60;12.80;;;-0.30;99.90;;;;;;2124359;27;20027;-70
2021/12/03 01:48:35;;;;;;;24.45;13.38;;;-0.30;99.90;;;;;;2123508;27;20033;-69
2021/12/03 01:49:35;;;;;;;19.15;12.15;;;-0.30;99.90;;;;;;2123569;27;20545;-71
2021/12/03 01:50:41;;;;;;;21.60;12.15;;;-0.30;99.90;;;;;;2124066;27;20079;-71
2021/12/03 01:51:42;;;;;;;23.58;12.15;;;-0.30;99.90;;;;;;2122342;27;20098;-72
2021/12/03 01:52:43;;;;;;;20.15;12.38;;;-0.30;99.90;;;;;;2122979;27;20464;-71
2021/12/03 01:53:44;;;;;;;20.42;11.82;;;-0.40;99.90;;;;;;2123593;27;20076;-71
2021/12/03 01:54:44;;;;;;;21.05;12.63;;;-0.40;99.90;;;;;;2122832;27;20027;-71
2021/12/03 01:55:47;;;;;;;19.90;12.30;;;-0.40;99.90;;;;;;2114400;28;20678;-71
2021/12/03 01:56:47;;;;;;;20.80;12.90;;;-0.40;99.90;;;;;;2114564;27;20489;-71
2021/12/03 01:57:49;;;;;;;21.33;12.27;;;-0.40;99.90;;;;;;2114355;28;20114;-71
2021/12/03 01:58:52;;;;;;;22.58;13.20;;;-0.40;99.90;;;;;;2123010;27;20096;-72
2021/12/03 01:59:52;;;;;;;24.45;13.18;;;-0.40;99.90;;;;;;2122782;27;20384;-72
2021/12/03 02:00:59;;;;;;;24.33;13.10;;;-0.40;99.90;;;;;;2114883;28;20058;-71
2021/12/03 02:02:00;;;;;;;26.35;13.98;;;-0.40;99.90;;;;;;2122711;27;20566;-72
2021/12/03 02:03:01;;;;;;;24.45;13.93;;;-0.30;99.90;;;;;;2124092;27;20114;-72
2021/12/03 02:04:03;;;;;;;25.15;13.20;;;-0.30;99.90;;;;;;2123713;27;20023;-71
2021/12/03 02:05:05;;;;;;;23.38;13.27;;;-0.30;99.90;;;;;;2115343;27;20358;-73
2021/12/03 02:06:09;;;;;;;25.80;13.20;;;-0.30;99.90;;;;;;2116695;28;20027;-71
2021/12/03 02:07:09;;;;;;;23.60;13.10;;;-0.30;99.90;;;;;;2109584;28;20032;-71
2021/12/03 02:08:11;;;;;;;21.23;12.85;;;-0.30;99.90;;;;;;2117330;28;20065;-71
2021/12/03 02:09:12;;;;;;;24.92;12.82;;;-0.30;99.90;;;;;;2127218;27;20026;-71
2021/12/03 02:10:14;;;;;;;22.70;12.13;;;-0.30;99.90;;;;;;2126686;27;20122;-71
2021/12/03 02:11:15;;;;;;;22.85;12.23;;;-0.30;99.90;;;;;;2126664;27;20029;-71
2021/12/03 02:12:16;;;;;;;23.98;12.07;;;-0.30;99.90;;;;;;2123191;27;20054;-71
2021/12/03 02:13:18;;;;;;;24.75;13.18;;;-0.30;99.90;;;;;;2123494;27;20033;-72
2021/12/03 02:14:19;;;;;;;26.30;13.00;;;-0.30;99.90;;;;;;2122919;27;20027;-71
2021/12/03 02:15:19;;;;;;;23.67;12.55;;;-0.30;99.90;;;;;;2122909;27;20027;-71
2021/12/03 02:16:21;;;;;;;23.05;12.40;;;-0.30;99.90;;;;;;2114272;28;20141;-71
2021/12/03 02:17:22;;;;;;;23.83;12.82;;;-0.30;99.90;;;;;;2114670;27;20032;-71
2021/12/03 02:18:23;;;;;;;24.98;12.75;;;-0.30;99.90;;;;;;2123516;27;20027;-71
2021/12/03 02:19:24;;;;;;;26.65;13.25;;;-0.30;99.90;;;;;;2128990;27;20035;-71
2021/12/03 02:20:25;;;;;;;26.17;13.13;;;-0.30;99.90;;;;;;2132732;27;20042;-72
2021/12/03 02:21:26;;;;;;;22.10;12.40;;;-0.20;99.90;;;;;;2132151;27;20035;-72
2021/12/03 02:22:27;;;;;;;26.60;13.00;;;-0.30;99.90;;;;;;2132703;27;20038;-72
2021/12/03 02:23:28;;;;;;;26.60;13.13;;;-0.30;99.90;;;;;;2124526;27;20110;-72
2021/12/03 02:24:31;;;;;;;21.90;11.93;;;-0.30;99.90;;;;;;2123118;27;20031;-71
2021/12/03 02:25:31;;;;;;;24.13;12.70;;;-0.30;99.90;;;;;;2123039;27;20039;-72
2021/12/03 02:26:32;;;;;;;24.42;12.45;;;-0.30;99.90;;;;;;2123404;27;20027;-72
2021/12/03 02:27:32;;;;;;;26.13;12.55;;;-0.30;99.90;;;;;;2122679;27;20518;-72
2021/12/03 02:28:38;;;;;;;25.27;12.18;;;-0.20;99.90;;;;;;2114161;28;20030;-71
2021/12/03 02:29:39;;;;;;;22.42;11.65;;;-0.20;99.90;;;;;;2122909;27;20500;-71
2021/12/03 02:30:40;;;;;;;22.30;11.75;;;-0.20;99.90;;;;;;2122814;27;20035;-72
2021/12/03 02:31:41;;;;;;;23.40;12.10;;;-0.30;99.90;;;;;;2122031;27;20659;-71
2021/12/03 02:32:42;;;;;;;19.50;11.07;;;-0.30;99.90;;;;;;2123173;27;20028;-71
2021/12/03 02:33:43;;;;;;;20.20;11.63;;;-0.30;99.90;;;;;;2123007;27;20457;-72
2021/12/03 02:34:43;;;;;;;23.88;12.25;;;-0.30;99.90;;;;;;2123323;27;20031;-72
2021/12/03 02:35:45;;;;;;;22.33;11.57;;;-0.30;99.90;;;;;;2123597;27;20041;-72
2021/12/03 02:36:45;;;;;;;21.13;11.50;;;-0.30;99.90;;;;;;2123147;27;20027;-72
2021/12/03 02:37:47;;;;;;;19.90;10.68;;;-0.30;99.90;;;;;;2123332;27;20034;-71
2021/12/03 02:38:48;;;;;;;20.20;11.10;;;-0.30;99.90;;;;;;2123162;27;20031;-72
2021/12/03 02:39:48;;;;;;;22.88;11.13;;;-0.30;99.90;;;;;;2122732;27;20031;-71
2021/12/03 02:40:51;;;;;;;23.42;11.52;;;-0.40;99.90;;;;;;2122479;27;20028;-71
2021/12/03 02:41:51;;;;;;;21.00;11.43;;;-0.40;99.90;;;;;;2122423;27;20026;-71
2021/12/03 02:42:53;;;;;;;20.35;11.43;;;-0.40;99.90;;;;;;2123264;27;20030;-72
2021/12/03 02:43:56;;;;;;;22.08;11.63;;;-0.40;99.90;;;;;;2123237;27;20062;-73
2021/12/03 02:44:57;;;;;;;20.60;11.63;;;-0.40;99.90;;;;;;2123442;27;20097;-71
2021/12/03 02:45:58;;;;;;;20.02;11.77;;;-0.50;99.90;;;;;;2123323;27;20019;-71
2021/12/03 02:46:58;;;;;;;22.90;11.38;;;-0.50;99.90;;;;;;2122708;27;20033;-72
2021/12/03 02:48:00;;;;;;;22.25;11.68;;;-0.40;99.90;;;;;;2122674;27;20022;-71
2021/12/03 02:49:01;;;;;;;20.00;11.35;;;-0.40;99.90;;;;;;2123200;27;20111;-72
2021/12/03 02:50:03;;;;;;;22.67;12.55;;;-0.50;99.90;;;;;;2123200;27;20023;-71
2021/12/03 02:51:05;;;;;;;23.92;12.18;;;-0.40;99.90;;;;;;2123008;27;20535;-71
2021/12/03 02:52:07;;;;;;;21.80;12.30;;;-0.40;99.90;;;;;;2122436;27;20026;-71
2021/12/03 02:53:08;;;;;;;24.95;12.32;;;-0.40;99.90;;;;;;2123110;27;20034;-70
2021/12/03 02:54:09;;;;;;;20.33;11.93;;;-0.40;99.90;;;;;;2123272;27;20019;-71
2021/12/03 02:55:09;;;;;;;21.52;11.65;;;-0.50;99.90;;;;;;2122785;27;20049;-71
2021/12/03 02:56:10;;;;;;;24.60;12.50;;;-0.50;99.90;;;;;;2122623;27;20042;-71
2021/12/03 02:57:11;;;;;;;22.13;12.10;;;-0.50;99.90;;;;;;2123745;27;20051;-72
2021/12/03 02:58:12;;;;;;;24.38;12.48;;;-0.50;99.90;;;;;;2123458;27;20042;-72
2021/12/03 02:59:13;;;;;;;21.15;12.07;;;-0.50;99.90;;;;;;2123341;27;20012;-73
2021/12/03 03:00:18;;;;;;;29.08;14.02;;;-0.50;99.90;;;;;;2114505;27;20472;-72
2021/12/03 03:01:18;;;;;;;25.27;13.15;;;-0.50;99.90;;;;;;2115293;28;20111;-71
2021/12/03 03:02:19;;;;;;;27.52;13.32;;;-0.50;99.90;;;;;;2122811;27;20518;-71
2021/12/03 03:03:20;;;;;;;25.48;13.50;;;-0.50;99.90;;;;;;2123047;27;20091;-71
2021/12/03 03:04:21;;;;;;;23.70;13.07;;;-0.50;99.90;;;;;;2115138;27;20147;-72
2021/12/03 03:05:23;;;;;;;21.45;12.32;;;-0.50;99.90;;;;;;2123425;27;20027;-73
2021/12/03 03:06:24;;;;;;;26.15;13.35;;;-0.60;99.90;;;;;;2124240;27;20035;-73
2021/12/03 03:07:25;;;;;;;22.33;12.48;;;-0.60;99.90;;;;;;2123412;27;20035;-72
2021/12/03 03:08:27;;;;;;;22.00;12.57;;;-0.50;99.90;;;;;;2114532;28;20035;-72
2021/12/03 03:09:27;;;;;;;28.20;13.38;;;-0.60;99.90;;;;;;2122971;27;20031;-72
2021/12/03 03:10:33;;;;;;;22.98;13.13;;;-0.60;99.90;;;;;;2122918;27;20078;-72
2021/12/03 03:11:34;;;;;;;25.40;13.70;;;-0.60;99.90;;;;;;2114899;27;20031;-72
2021/12/03 03:12:35;;;;;;;26.35;14.82;;;-0.60;99.90;;;;;;2114218;28;20076;-71
2021/12/03 03:13:36;;;;;;;27.58;14.93;;;-0.60;99.90;;;;;;2123220;27;20106;-71
2021/12/03 03:14:44;;;;;;;26.65;14.73;;;-0.60;99.90;;;;;;2114944;28;20019;-71
2021/12/03 03:15:45;;;;;;;27.92;14.27;;;-0.60;99.90;;;;;;2116063;27;20043;-72
2021/12/03 03:16:46;;;;;;;31.65;14.77;;;-0.50;99.90;;;;;;2123513;27;20556;-73
2021/12/03 03:17:47;;;;;;;27.45;14.98;;;-0.60;99.90;;;;;;2124140;27;20076;-72
2021/12/03 03:18:48;;;;;;;27.30;14.98;;;-0.50;99.90;;;;;;2123694;27;20035;-71
2021/12/03 03:19:49;;;;;;;26.20;14.45;;;-0.50;99.90;;;;;;2123656;27;20019;-71
2021/12/03 03:20:52;;;;;;;28.17;15.02;;;-0.50;99.90;;;;;;2123608;27;20023;-72
2021/12/03 03:21:52;;;;;;;26.55;14.57;;;-0.50;99.90;;;;;;2113592;28;20027;-73
2021/12/03 03:22:53;;;;;;;23.58;13.38;;;-0.50;99.90;;;;;;2114165;28;20602;-71
2021/12/03 03:23:54;;;;;;;25.30;14.43;;;-0.60;99.90;;;;;;2123515;27;20037;-72
2021/12/03 03:24:59;;;;;;;25.15;13.93;;;-0.60;99.90;;;;;;2123548;27;20509;-70
2021/12/03 03:26:01;;;;;;;24.63;13.35;;;-0.60;99.90;;;;;;2122692;27;20019;-73
2021/12/03 03:27:03;;;;;;;24.02;13.95;;;-0.60;99.90;;;;;;2122765;27;20042;-71
2021/12/03 03:28:04;;;;;;;26.90;13.93;;;-0.60;99.90;;;;;;2123215;27;20027;-71
2021/12/03 03:29:09;;;;;;;27.67;14.63;;;-0.60;99.90;;;;;;2123274;27;20498;-71
2021/12/03 03:30:12;;;;;;;27.58;15.35;;;-0.60;99.90;;;;;;2123188;27;20793;-71
2021/12/03 03:31:13;;;;;;;26.95;14.95;;;-0.60;99.90;;;;;;2122800;27;20056;-71
2021/12/03 03:32:15;;;;;;;26.38;14.32;;;-0.60;99.90;;;;;;2121998;27;20080;-71
2021/12/03 03:33:16;;;;;;;25.92;14.68;;;-0.60;99.90;;;;;;2122738;27;20019;-71
2021/12/03 03:34:17;;;;;;;30.55;15.10;;;-0.60;99.90;;;;;;2122740;27;20019;-72
2021/12/03 03:35:17;;;;;;;27.00;14.43;;;-0.60;99.90;;;;;;2122229;27;20031;-72
2021/12/03 03:36:18;;;;;;;24.85;14.32;;;-0.60;99.90;;;;;;2122177;27;20054;-71
2021/12/03 03:37:21;;;;;;;28.20;15.00;;;-0.60;99.90;;;;;;2122582;27;20368;-71
2021/12/03 03:38:22;;;;;;;24.63;14.45;;;-0.60;99.90;;;;;;2122111;27;20530;-72
2021/12/03 03:39:22;;;;;;;29.40;15.60;;;-0.60;99.90;;;;;;2122071;27;20039;-71
2021/12/03 03:40:23;;;;;;;26.17;14.85;;;-0.60;99.90;;;;;;2122196;27;20039;-71
2021/12/03 03:41:24;;;;;;;25.45;14.38;;;-0.60;99.90;;;;;;2121764;27;20028;-71
2021/12/03 03:42:24;;;;;;;28.67;14.98;;;-0.60;99.90;;;;;;2122396;27;20063;-71
2021/12/03 03:43:25;;;;;;;25.88;14.68;;;-0.60;99.90;;;;;;2122763;27;20042;-71
2021/12/03 03:44:26;;;;;;;26.55;14.57;;;-0.60;99.90;;;;;;2122783;27;20476;-72
2021/12/03 03:45:28;;;;;;;27.33;15.18;;;-0.60;99.90;;;;;;2122768;27;20031;-70
2021/12/03 03:46:29;;;;;;;26.50;14.20;;;-0.60;99.90;;;;;;2122191;27;20035;-71
2021/12/03 03:47:30;;;;;;;25.35;13.85;;;-0.60;99.90;;;;;;2113456;28;20503;-72
2021/12/03 03:48:31;;;;;;;23.23;13.18;;;-0.60;99.90;;;;;;2122064;27;20034;-71
2021/12/03 03:49:32;;;;;;;31.67;16.38;;;-0.60;99.90;;;;;;2122595;27;20034;-71
2021/12/03 03:50:33;;;;;;;35.13;16.40;;;-0.60;99.90;;;;;;2122805;27;20042;-71
2021/12/03 03:51:34;;;;;;;28.27;15.55;;;-0.50;99.90;;;;;;2121701;27;20107;-73
2021/12/03 03:52:36;;;;;;;26.10;14.52;;;-0.50;99.90;;;;;;2121876;27;20059;-71
2021/12/03 03:53:39;;;;;;;27.85;15.05;;;-0.50;99.90;;;;;;2122160;27;20552;-72
2021/12/03 03:54:39;;;;;;;27.23;14.80;;;-0.50;99.90;;;;;;2122117;27;20537;-73
2021/12/03 03:55:40;;;;;;;33.65;16.13;;;-0.50;99.90;;;;;;2113331;28;20097;-72
2021/12/03 03:56:42;;;;;;;27.00;14.98;;;-0.50;99.90;;;;;;2122026;27;20027;-73
2021/12/03 03:57:44;;;;;;;30.55;16.17;;;-0.50;99.90;;;;;;2122559;27;20400;-72
2021/12/03 03:58:45;;;;;;;28.25;15.18;;;-0.50;99.90;;;;;;2123313;27;20020;-71
2021/12/03 03:59:45;;;;;;;31.15;15.85;;;-0.50;99.90;;;;;;2122933;27;20498;-71
2021/12/03 04:00:46;;;;;;;29.50;15.57;;;-0.40;99.90;;;;;;2121883;27;20050;-72
2021/12/03 04:01:49;;;;;;;28.23;15.45;;;-0.40;99.90;;;;;;2121184;27;20027;-71
2021/12/03 04:02:49;;;;;;;31.88;15.43;;;-0.40;99.90;;;;;;2122434;27;20035;-71
2021/12/03 04:03:50;;;;;;;30.98;15.57;;;-0.40;99.90;;;;;;2122475;27;20039;-72
2021/12/03 04:04:51;;;;;;;27.85;14.95;;;-0.40;99.90;;;;;;2122273;27;20507;-72
2021/12/03 04:05:53;;;;;;;32.45;15.60;;;-0.40;99.90;;;;;;2122520;27;20490;-72
2021/12/03 04:06:53;;;;;;;31.00;15.70;;;-0.40;99.90;;;;;;2122526;27;20027;-71
2021/12/03 04:07:55;;;;;;;27.42;15.07;;;-0.30;99.90;;;;;;2122801;27;20403;-70
2021/12/03 04:08:55;;;;;;;31.63;15.25;;;-0.30;99.90;;;;;;2122035;27;20034;-71
2021/12/03 04:09:56;;;;;;;28.55;15.20;;;-0.30;99.90;;;;;;2113661;28;20019;-71
2021/12/03 04:10:58;;;;;;;27.33;14.82;;;-0.30;99.90;;;;;;2113814;28;20024;-71
2021/12/03 04:11:59;;;;;;;30.40;15.13;;;-0.30;99.90;;;;;;2127693;27;20763;-71
2021/12/03 04:13:00;;;;;;;28.63;15.43;;;-0.30;99.90;;;;;;2126871;27;20034;-70
2021/12/03 04:14:01;;;;;;;30.60;15.95;;;-0.30;99.90;;;;;;2125579;27;20131;-71
2021/12/03 04:15:04;;;;;;;29.63;15.70;;;-0.30;99.90;;;;;;2122910;27;20066;-71
2021/12/03 04:16:05;;;;;;;30.63;15.95;;;-0.30;99.90;;;;;;2122612;27;20122;-71
2021/12/03 04:17:05;;;;;;;28.63;15.45;;;-0.30;99.90;;;;;;2121642;27;20026;-72
2021/12/03 04:18:06;;;;;;;27.75;15.45;;;-0.30;99.90;;;;;;2113360;28;20034;-71
2021/12/03 04:19:06;;;;;;;29.50;15.55;;;-0.30;99.90;;;;;;2113371;28;20039;-72
2021/12/03 04:20:10;;;;;;;28.30;15.40;;;-0.30;99.90;;;;;;2121814;27;20019;-72
2021/12/03 04:21:10;;;;;;;26.77;14.82;;;-0.30;99.90;;;;;;2113001;28;20042;-72
2021/12/03 04:22:17;;;;;;;30.77;15.60;;;-0.40;99.90;;;;;;2112487;28;20442;-71
2021/12/03 04:23:19;;;;;;;28.02;14.63;;;-0.40;99.90;;;;;;2122407;27;20643;-70
2021/12/03 04:24:20;;;;;;;27.85;15.73;;;-0.40;99.90;;;;;;2122339;27;20039;-69
2021/12/03 04:25:22;;;;;;;26.73;14.68;;;-0.40;99.90;;;;;;2122524;27;20066;-69
2021/12/03 04:26:22;;;;;;;24.98;13.50;;;-0.50;99.90;;;;;;2122262;27;20518;-68
2021/12/03 04:27:23;;;;;;;27.83;14.63;;;-0.50;99.90;;;;;;2122358;27;20031;-70
2021/12/03 04:28:24;;;;;;;25.33;14.77;;;-0.50;99.90;;;;;;2121690;27;20035;-70
2021/12/03 04:29:25;;;;;;;27.40;15.07;;;-0.60;99.90;;;;;;2113216;28;20111;-70
2021/12/03 04:30:29;;;;;;;25.73;14.32;;;-0.60;99.90;;;;;;2113299;28;20039;-69
2021/12/03 04:31:29;;;;;;;26.05;14.65;;;-0.60;99.90;;;;;;2121015;27;20046;-69
2021/12/03 04:32:30;;;;;;;28.17;14.60;;;-0.60;99.90;;;;;;2122435;27;20042;-70
2021/12/03 04:33:31;;;;;;;24.75;14.40;;;-0.70;99.90;;;;;;2122306;27;20517;-70
2021/12/03 04:34:31;;;;;;;26.33;14.27;;;-0.70;99.90;;;;;;2122396;27;20549;-70
2021/12/03 04:35:32;;;;;;;26.25;14.80;;;-0.70;99.90;;;;;;2121756;27;20027;-68
2021/12/03 04:36:32;;;;;;;29.90;16.45;;;-0.80;99.90;;;;;;2121651;27;20023;-68
2021/12/03 04:37:33;;;;;;;29.58;15.50;;;-0.70;99.90;;;;;;2122405;27;20118;-70
2021/12/03 04:38:34;;;;;;;24.88;14.85;;;-0.70;99.90;;;;;;2122360;27;20647;-69
2021/12/03 04:39:35;;;;;;;28.90;15.88;;;-0.70;99.90;;;;;;2121694;27;20088;-68
2021/12/03 04:40:38;;;;;;;26.17;14.63;;;-0.70;99.90;;;;;;2121703;27;20407;-70
2021/12/03 04:41:38;;;;;;;25.08;14.50;;;-0.70;99.90;;;;;;2121526;27;20122;-69
2021/12/03 04:42:39;;;;;;;24.75;14.27;;;-0.70;99.90;;;;;;2122201;27;20518;-69
2021/12/03 04:43:40;;;;;;;26.77;14.50;;;-0.80;99.90;;;;;;2122365;27;20475;-69
2021/12/03 04:44:41;;;;;;;26.80;14.48;;;-0.80;99.90;;;;;;2122242;27;20537;-69
2021/12/03 04:45:42;;;;;;;27.67;15.07;;;-0.80;99.90;;;;;;2122289;27;20035;-70
2021/12/03 04:46:42;;;;;;;24.55;14.77;;;-0.80;99.90;;;;;;2122281;27;20466;-69
2021/12/03 04:47:43;;;;;;;30.75;15.05;;;-0.80;99.90;;;;;;2122144;27;20031;-70
2021/12/03 04:48:43;;;;;;;29.95;15.40;;;-0.80;99.90;;;;;;2121572;27;20052;-69
2021/12/03 04:49:44;;;;;;;30.30;15.80;;;-0.70;99.90;;;;;;2113069;28;20664;-69
2021/12/03 04:50:46;;;;;;;30.48;15.77;;;-0.70;99.90;;;;;;2112923;28;20020;-69
2021/12/03 04:51:47;;;;;;;29.45;16.05;;;-0.60;99.90;;;;;;2121422;27;20029;-69
2021/12/03 04:52:49;;;;;;;26.25;14.88;;;-0.60;99.90;;;;;;2121664;27;20106;-69
2021/12/03 04:53:49;;;;;;;29.85;15.27;;;-0.50;99.90;;;;;;2121251;27;20023;-69
2021/12/03 04:54:50;;;;;;;25.80;15.35;;;-0.60;99.90;;;;;;2123064;27;20555;-70
2021/12/03 04:55:51;;;;;;;28.50;15.00;;;-0.60;99.90;;;;;;2124813;27;20170;-69
2021/12/03 04:56:53;;;;;;;27.75;15.15;;;-0.60;99.90;;;;;;2125043;27;20039;-69
2021/12/03 04:57:54;;;;;;;27.30;15.45;;;-0.60;99.90;;;;;;2127392;27;20059;-70
2021/12/03 04:58:54;;;;;;;26.85;14.88;;;-0.60;99.90;;;;;;2123821;27;20079;-69
2021/12/03 04:59:55;;;;;;;25.08;14.05;;;-0.60;99.90;;;;;;2122310;27;20016;-70
2021/12/03 05:00:57;;;;;;;25.98;14.63;;;-0.60;99.90;;;;;;2121672;28;20027;-71
2021/12/03 05:01:58;;;;;;;24.45;14.20;;;-0.50;99.90;;;;;;2120836;28;20015;-70
2021/12/03 05:03:00;;;;;;;23.70;13.95;;;-0.50;99.90;;;;;;2121514;28;20581;-70
2021/12/03 05:04:01;;;;;;;23.63;13.98;;;-0.50;99.90;;;;;;2113158;28;20476;-71
2021/12/03 05:05:04;;;;;;;22.38;13.50;;;-0.60;99.90;;;;;;2121697;28;20019;-71
2021/12/03 05:06:09;;;;;;;25.80;14.27;;;-0.60;99.90;;;;;;2122177;27;20106;-70
2021/12/03 05:08:11;;;;;;;25.25;14.30;;;-0.60;99.90;;;;;;2121616;28;20061;-70
2021/12/03 05:09:11;;;;;;;25.85;13.90;;;-0.50;99.90;;;;;;2113184;28;20023;-69
2021/12/03 05:10:12;;;;;;;25.45;14.07;;;-0.50;99.90;;;;;;2113200;28;20016;-69
2021/12/03 05:11:12;;;;;;;23.55;13.13;;;-0.60;99.90;;;;;;2121353;28;20747;-69
2021/12/03 05:12:13;;;;;;;22.38;12.90;;;-0.60;99.90;;;;;;2121584;27;20027;-69
2021/12/03 05:13:24;;;;;;;22.70;13.75;;;-0.60;99.90;;;;;;2122101;27;20038;-69
2021/12/03 05:14:24;;;;;;;25.88;13.80;;;-0.70;99.90;;;;;;2122060;27;20023;-70
2021/12/03 05:15:26;;;;;;;25.77;13.18;;;-0.70;99.90;;;;;;2121452;28;20027;-69